aviador You're here:

KRIC Decoded Metar

RICHMOND in VA, USA
Report Time2018-05-21 23:54:00
UTC Time2018-05-22 00:02:41
Flight Rules vfr VFR
Wind120° at 08 kt
W.Decomp.*RWY 16: 6.9 kt HW 4.1 kt LCW
RWY 07: 4.1 kt HW 6.9 kt RCW
RWY 20: 2.6 kt HW 7.6 kt LCW
W.Rank120° ranks 29
Current wind is above 120° avg. (5.5)
Visibility9999 m
Phenomena:N/A
Clouds:Overcast 300 Hf
Expected CloudBase > 2,400 ft AGL from Temp-Dew spread
Ceiling30,000 ft
Temp21°C (ISA +6)
Dew Point15°C (69% RH)
AAT19.8°C
QNH1021 hPa
Density Alt863 ft
Elevation164 ft
Report Wrong Elevation
Raw Report
METAR KRIC 212354Z 12008KT 10SM OVC300 21/15 A3015 RMK AO2 SLP214 T02110150
10272 20211 53009=

Extra information for KRIC:More info

Metar Taf Metar & Taf Last 4 Metars F.Rules Stats Wind Profile Meteogram Temp Stats Airport Information Weather charts Add Link Nearby VenuesMetar ALERT Operation Metar Decoded Social comments

AIRNAV info for KRIC